Time;durP1;ratioP1;P1;durP2;ratioP2;P2;SDS_P1;SDS_P2;PMS_P1;PMS_P2;Temp;Humidity;BMP_temperature;BMP_pressure;BME280_temperature;BME280_humidity;BME280_pressure;Samples;Min_cycle;Max_cycle;Signal;HPM_P1;HPM_P2
2022/03/10 00:01:52;;;;;;;24.13;13.60;;;;;;;;;;5023338;28;20205;-64
2022/03/10 00:04:19;;;;;;;28.00;14.43;;;;;;;;;;5017979;28;20210;-61
2022/03/10 00:06:47;;;;;;;24.40;14.17;;;;;;;;;;5024875;28;21385;-62
2022/03/10 00:09:14;;;;;;;27.27;14.27;;;;;;;;;;5026295;28;20200;-64
2022/03/10 00:11:41;;;;;;;26.17;14.53;;;;;;;;;;5026646;28;20251;-62
2022/03/10 00:14:10;;;;;;;26.07;13.87;;;;;;;;;;5036973;28;20230;-63
2022/03/10 00:16:38;;;;;;;25.50;13.40;;;;;;;;;;5015022;28;20292;-63
2022/03/10 00:19:06;;;;;;;25.87;15.20;;;;;;;;;;5015004;28;20215;-64
2022/03/10 00:21:33;;;;;;;28.90;16.10;;;;;;;;;;5024610;28;20224;-63
2022/03/10 00:24:01;;;;;;;33.20;16.17;;;;;;;;;;5030711;28;20206;-62
2022/03/10 00:26:28;;;;;;;29.83;15.63;;;;;;;;;;5019328;28;20255;-63
2022/03/10 00:28:56;;;;;;;26.03;15.03;;;;;;;;;;5021282;28;20220;-61
2022/03/10 00:31:23;;;;;;;30.17;16.17;;;;;;;;;;5027373;28;20217;-62
2022/03/10 00:33:50;;;;;;;28.57;15.57;;;;;;;;;;5038035;28;20685;-64
2022/03/10 00:36:18;;;;;;;29.70;15.63;;;;;;;;;;5036261;28;20259;-63
2022/03/10 00:38:48;;;;;;;32.87;16.90;;;;;;;;;;5012481;28;20694;-63
2022/03/10 00:41:15;;;;;;;28.50;15.23;;;;;;;;;;5006506;28;20812;-64
2022/03/10 00:43:43;;;;;;;28.23;16.40;;;;;;;;;;5018431;28;20261;-64
2022/03/10 00:46:11;;;;;;;27.97;16.23;;;;;;;;;;5018550;28;20211;-63
2022/03/10 00:48:38;;;;;;;30.40;16.97;;;;;;;;;;5011771;28;20229;-63
2022/03/10 00:51:06;;;;;;;29.30;15.90;;;;;;;;;;5013216;28;20232;-64
2022/03/10 00:53:34;;;;;;;27.30;15.03;;;;;;;;;;5032726;28;20704;-64
2022/03/10 00:56:01;;;;;;;27.87;15.13;;;;;;;;;;5018992;28;20203;-64
2022/03/10 00:58:29;;;;;;;28.93;14.93;;;;;;;;;;5019715;28;20226;-64
2022/03/10 01:00:56;;;;;;;25.67;14.50;;;;;;;;;;5023833;28;20231;-64
2022/03/10 01:03:24;;;;;;;28.40;14.70;;;;;;;;;;5009976;28;20203;-63
2022/03/10 01:05:52;;;;;;;30.23;14.67;;;;;;;;;;5028631;28;20203;-63
2022/03/10 01:08:19;;;;;;;25.20;14.20;;;;;;;;;;5026034;28;20280;-62
2022/03/10 01:10:47;;;;;;;24.60;13.60;;;;;;;;;;5037961;28;20747;-63
2022/03/10 01:13:17;;;;;;;27.23;15.00;;;;;;;;;;5036144;28;20209;-64
2022/03/10 01:15:46;;;;;;;26.80;14.70;;;;;;;;;;5009655;28;20210;-63
2022/03/10 01:18:14;;;;;;;27.43;13.77;;;;;;;;;;5014596;28;20236;-64
2022/03/10 01:20:43;;;;;;;24.30;12.90;;;;;;;;;;5036388;28;20233;-64
2022/03/10 01:23:10;;;;;;;24.77;13.90;;;;;;;;;;5025852;28;20211;-63
2022/03/10 01:25:38;;;;;;;25.47;13.90;;;;;;;;;;5033714;28;20673;-64
2022/03/10 01:28:06;;;;;;;25.73;13.90;;;;;;;;;;5012873;28;20227;-63
2022/03/10 01:30:33;;;;;;;24.03;13.43;;;;;;;;;;5013914;28;20207;-63
2022/03/10 01:33:01;;;;;;;23.97;13.97;;;;;;;;;;5025535;28;22486;-63
2022/03/10 01:35:28;;;;;;;23.27;13.50;;;;;;;;;;5024793;28;20289;-64
2022/03/10 01:37:56;;;;;;;21.10;12.87;;;;;;;;;;5032492;28;20260;-64
2022/03/10 01:40:23;;;;;;;23.97;13.40;;;;;;;;;;5025673;28;20236;-62
2022/03/10 01:42:51;;;;;;;18.33;11.30;;;;;;;;;;5017638;28;20277;-63
2022/03/10 01:45:18;;;;;;;20.93;12.00;;;;;;;;;;5027354;28;20212;-64
2022/03/10 01:47:46;;;;;;;27.13;12.60;;;;;;;;;;5021240;28;20225;-65
2022/03/10 01:50:14;;;;;;;26.53;14.17;;;;;;;;;;5019608;28;20206;-64
2022/03/10 01:52:41;;;;;;;40.43;19.47;;;;;;;;;;5012733;28;20220;-64
2022/03/10 01:55:10;;;;;;;50.03;20.87;;;;;;;;;;5029121;28;20811;-64
2022/03/10 01:57:37;;;;;;;38.67;20.50;;;;;;;;;;5037929;28;20228;-65
2022/03/10 02:00:06;;;;;;;38.30;19.53;;;;;;;;;;5011981;28;20215;-62
2022/03/10 02:02:34;;;;;;;32.93;16.63;;;;;;;;;;5035978;28;20206;-63
2022/03/10 02:05:01;;;;;;;24.23;14.63;;;;;;;;;;5028746;28;20215;-64
2022/03/10 02:10:18;;;;;;;28.43;15.13;;;;;;;;;;5039480;28;20250;-62
2022/03/10 02:12:49;;;;;;;26.83;14.27;;;;;;;;;;5026052;28;20206;-63
2022/03/10 02:18:05;;;;;;;24.63;13.87;;;;;;;;;;5041192;28;20226;-63
2022/03/10 02:20:32;;;;;;;24.17;13.67;;;;;;;;;;5040999;28;20226;-63
2022/03/10 02:22:59;;;;;;;22.03;12.73;;;;;;;;;;5010671;28;20210;-63
2022/03/10 02:25:28;;;;;;;22.00;11.83;;;;;;;;;;5013086;28;20205;-64
2022/03/10 02:27:56;;;;;;;20.97;12.07;;;;;;;;;;5022958;28;20273;-63
2022/03/10 02:30:24;;;;;;;20.73;11.80;;;;;;;;;;5022856;28;20264;-63
2022/03/10 02:32:51;;;;;;;19.60;11.40;;;;;;;;;;5042152;28;20246;-64
2022/03/10 02:35:19;;;;;;;21.53;10.83;;;;;;;;;;5038813;28;20207;-63
2022/03/10 02:37:47;;;;;;;19.17;11.13;;;;;;;;;;5039197;28;20241;-64
2022/03/10 02:40:15;;;;;;;17.00;10.33;;;;;;;;;;5028707;28;20606;-63
2022/03/10 02:42:42;;;;;;;18.07;10.83;;;;;;;;;;5038972;28;20202;-63
2022/03/10 02:45:11;;;;;;;18.97;11.63;;;;;;;;;;5032635;28;20271;-63
2022/03/10 02:47:39;;;;;;;22.10;11.80;;;;;;;;;;5031427;28;20229;-64
2022/03/10 02:50:07;;;;;;;19.13;11.70;;;;;;;;;;5042429;28;20383;-63
2022/03/10 02:52:35;;;;;;;20.40;11.23;;;;;;;;;;5040689;28;20202;-64
2022/03/10 02:55:03;;;;;;;17.63;10.43;;;;;;;;;;5052367;28;20203;-63
2022/03/10 02:57:31;;;;;;;24.03;11.60;;;;;;;;;;5029780;28;20696;-63
2022/03/10 03:00:03;;;;;;;17.30;10.70;;;;;;;;;;5032513;28;20206;-63
2022/03/10 03:02:30;;;;;;;18.27;11.07;;;;;;;;;;5043139;28;20197;-63
2022/03/10 03:04:57;;;;;;;17.30;9.90;;;;;;;;;;5026079;28;20214;-63
2022/03/10 03:07:25;;;;;;;18.70;10.13;;;;;;;;;;5025269;28;20249;-64
2022/03/10 03:09:52;;;;;;;20.23;10.50;;;;;;;;;;5012403;28;20218;-63
2022/03/10 03:12:19;;;;;;;18.37;10.07;;;;;;;;;;5025000;28;20750;-63
2022/03/10 03:14:47;;;;;;;19.17;9.47;;;;;;;;;;5028462;28;20241;-63
2022/03/10 03:17:14;;;;;;;17.30;9.23;;;;;;;;;;5041819;28;20698;-62
2022/03/10 03:19:42;;;;;;;14.27;8.50;;;;;;;;;;5038820;28;20241;-63
2022/03/10 03:22:10;;;;;;;14.80;8.10;;;;;;;;;;5031098;28;20234;-62
2022/03/10 03:24:37;;;;;;;13.43;8.40;;;;;;;;;;5041376;28;20615;-63
2022/03/10 03:27:04;;;;;;;14.37;8.43;;;;;;;;;;5028412;28;20218;-64
2022/03/10 03:29:32;;;;;;;14.83;8.50;;;;;;;;;;5018027;28;20210;-63
2022/03/10 03:31:59;;;;;;;17.40;10.20;;;;;;;;;;5012462;28;21455;-62
2022/03/10 03:34:28;;;;;;;17.80;9.73;;;;;;;;;;5017655;28;20224;-62
2022/03/10 03:36:55;;;;;;;16.70;9.40;;;;;;;;;;5012140;28;20230;-63
2022/03/10 03:39:23;;;;;;;16.67;9.53;;;;;;;;;;5036488;28;20214;-64
2022/03/10 03:41:50;;;;;;;16.93;9.13;;;;;;;;;;5041334;28;20909;-63
2022/03/10 03:44:17;;;;;;;14.33;8.90;;;;;;;;;;5024592;28;20206;-63
2022/03/10 03:46:45;;;;;;;17.30;9.67;;;;;;;;;;5019185;28;22933;-64
2022/03/10 03:49:12;;;;;;;18.80;11.07;;;;;;;;;;5026255;28;20206;-62
2022/03/10 03:51:40;;;;;;;21.77;11.53;;;;;;;;;;5027678;28;20225;-64
2022/03/10 03:54:10;;;;;;;21.83;12.47;;;;;;;;;;5032313;28;20206;-63
2022/03/10 03:56:37;;;;;;;26.47;13.70;;;;;;;;;;5026190;28;20233;-63
2022/03/10 03:59:05;;;;;;;18.43;11.20;;;;;;;;;;5048853;28;20684;-64
2022/03/10 04:01:33;;;;;;;17.37;10.10;;;;;;;;;;5049442;28;20218;-63
2022/03/10 04:04:01;;;;;;;21.60;11.70;;;;;;;;;;5039230;28;20203;-62
2022/03/10 04:06:28;;;;;;;23.97;12.03;;;;;;;;;;5010740;28;20217;-62
2022/03/10 04:08:56;;;;;;;20.30;11.37;;;;;;;;;;5022630;28;20214;-64
2022/03/10 04:11:23;;;;;;;20.70;11.17;;;;;;;;;;5010307;28;20202;-63
2022/03/10 04:13:50;;;;;;;19.37;9.50;;;;;;;;;;5038700;28;20207;-65
2022/03/10 04:16:18;;;;;;;17.03;10.07;;;;;;;;;;5040430;28;20207;-64
2022/03/10 04:18:46;;;;;;;19.57;9.80;;;;;;;;;;5047100;28;20206;-64
2022/03/10 04:21:13;;;;;;;16.67;9.73;;;;;;;;;;5015747;28;20260;-64
2022/03/10 04:23:41;;;;;;;16.10;9.87;;;;;;;;;;5014763;28;20217;-63
2022/03/10 04:26:08;;;;;;;16.37;10.13;;;;;;;;;;5027033;28;20210;-62
2022/03/10 04:28:35;;;;;;;20.03;11.03;;;;;;;;;;5031633;28;20233;-62
2022/03/10 04:31:03;;;;;;;19.77;11.07;;;;;;;;;;5010142;28;20806;-62
2022/03/10 04:33:31;;;;;;;19.40;11.33;;;;;;;;;;5006440;28;20229;-62
2022/03/10 04:35:58;;;;;;;22.70;11.67;;;;;;;;;;5018207;28;20207;-62
2022/03/10 04:38:26;;;;;;;21.63;12.20;;;;;;;;;;5020798;28;20227;-63
2022/03/10 04:40:53;;;;;;;19.93;11.30;;;;;;;;;;5000395;28;20324;-64
2022/03/10 04:43:23;;;;;;;19.83;10.73;;;;;;;;;;5014100;28;20214;-62
2022/03/10 04:45:51;;;;;;;18.70;10.63;;;;;;;;;;5005876;28;20291;-64
2022/03/10 04:48:18;;;;;;;17.83;10.23;;;;;;;;;;5020243;28;20285;-64
2022/03/10 04:50:47;;;;;;;16.90;10.73;;;;;;;;;;5029914;28;20226;-63
2022/03/10 04:53:15;;;;;;;17.33;10.47;;;;;;;;;;5017794;28;20256;-64
2022/03/10 04:55:42;;;;;;;25.10;10.90;;;;;;;;;;5022631;28;20209;-63
2022/03/10 04:58:11;;;;;;;15.30;9.10;;;;;;;;;;5007861;28;20649;-63
2022/03/10 05:00:38;;;;;;;17.77;10.70;;;;;;;;;;5019047;28;20207;-64
2022/03/10 05:03:06;;;;;;;18.17;10.50;;;;;;;;;;5023381;28;20244;-62
2022/03/10 05:05:34;;;;;;;20.50;10.83;;;;;;;;;;5024768;28;21093;-63
2022/03/10 05:08:01;;;;;;;19.13;11.00;;;;;;;;;;5031059;28;20231;-63
2022/03/10 05:10:31;;;;;;;18.33;10.90;;;;;;;;;;5021334;28;20238;-63
2022/03/10 05:13:01;;;;;;;17.80;10.57;;;;;;;;;;5011346;28;20215;-64
2022/03/10 05:15:31;;;;;;;16.90;9.87;;;;;;;;;;5005627;28;20215;-62
2022/03/10 05:17:59;;;;;;;21.90;13.40;;;;;;;;;;5012524;28;20631;-62
2022/03/10 05:20:27;;;;;;;21.00;13.20;;;;;;;;;;5008138;28;20202;-63
2022/03/10 05:22:57;;;;;;;19.70;11.77;;;;;;;;;;5001594;28;20242;-64
2022/03/10 05:25:38;;;;;;;17.27;10.93;;;;;;;;;;5012345;28;20206;-64
2022/03/10 05:28:07;;;;;;;21.10;12.17;;;;;;;;;;5014719;28;20232;-64
2022/03/10 05:30:38;;;;;;;16.83;10.73;;;;;;;;;;4994065;28;20216;-62
2022/03/10 05:33:05;;;;;;;16.63;10.27;;;;;;;;;;5015708;28;20233;-64
2022/03/10 05:35:33;;;;;;;18.13;11.07;;;;;;;;;;5034526;28;20234;-64
2022/03/10 05:38:02;;;;;;;17.97;10.20;;;;;;;;;;5020073;28;20230;-63
2022/03/10 05:40:29;;;;;;;17.97;10.80;;;;;;;;;;5017630;28;20223;-62
2022/03/10 05:42:59;;;;;;;16.23;10.57;;;;;;;;;;5026648;28;20222;-63
2022/03/10 05:45:26;;;;;;;16.50;10.97;;;;;;;;;;5010527;28;20245;-64
2022/03/10 05:47:55;;;;;;;16.13;10.87;;;;;;;;;;5036930;28;20299;-62
2022/03/10 05:50:23;;;;;;;17.40;10.30;;;;;;;;;;5003226;28;20210;-63
2022/03/10 05:52:50;;;;;;;16.93;10.53;;;;;;;;;;5001797;28;20230;-62
2022/03/10 05:55:18;;;;;;;17.77;11.73;;;;;;;;;;5020281;28;20209;-64
2022/03/10 05:57:47;;;;;;;21.47;12.00;;;;;;;;;;5021507;28;20229;-62
2022/03/10 06:00:15;;;;;;;21.30;12.80;;;;;;;;;;5030753;28;20263;-63
2022/03/10 06:02:43;;;;;;;19.63;11.87;;;;;;;;;;4998358;28;20238;-61
2022/03/10 06:05:11;;;;;;;20.57;12.17;;;;;;;;;;5033927;28;20214;-62
2022/03/10 06:07:38;;;;;;;18.73;10.73;;;;;;;;;;5021797;28;20647;-62
2022/03/10 06:10:06;;;;;;;20.40;12.30;;;;;;;;;;5027898;28;20609;-62
2022/03/10 06:12:34;;;;;;;18.10;11.47;;;;;;;;;;5025786;28;20632;-63
2022/03/10 06:15:03;;;;;;;19.63;10.60;;;;;;;;;;5002242;28;20723;-62
2022/03/10 06:17:30;;;;;;;20.93;10.97;;;;;;;;;;5047947;28;20223;-63
2022/03/10 06:19:58;;;;;;;21.67;12.83;;;;;;;;;;5049716;28;20214;-62
2022/03/10 06:22:33;;;;;;;20.17;12.57;;;;;;;;;;5020314;28;20320;-62
2022/03/10 06:25:00;;;;;;;22.50;12.97;;;;;;;;;;5025221;28;20233;-62
2022/03/10 06:27:27;;;;;;;22.13;12.27;;;;;;;;;;5020819;28;20230;-63
2022/03/10 06:29:55;;;;;;;16.37;9.87;;;;;;;;;;5025475;28;20203;-62
2022/03/10 06:32:23;;;;;;;19.33;10.67;;;;;;;;;;5038884;28;20271;-63
2022/03/10 06:34:51;;;;;;;16.90;10.13;;;;;;;;;;5032423;28;20214;-62
2022/03/10 06:37:19;;;;;;;17.30;8.63;;;;;;;;;;5048603;28;20832;-64
2022/03/10 06:39:47;;;;;;;12.50;7.77;;;;;;;;;;5025678;28;20203;-62
2022/03/10 06:42:14;;;;;;;14.13;7.10;;;;;;;;;;5016560;28;20263;-62
2022/03/10 06:44:42;;;;;;;11.23;7.33;;;;;;;;;;5022937;28;20257;-63
2022/03/10 06:47:09;;;;;;;10.40;6.97;;;;;;;;;;5033572;28;20777;-63
2022/03/10 06:49:37;;;;;;;16.87;6.77;;;;;;;;;;5041412;28;20210;-62
2022/03/10 06:52:05;;;;;;;10.57;6.40;;;;;;;;;;5040041;28;20216;-62
2022/03/10 06:54:32;;;;;;;11.83;6.57;;;;;;;;;;5043958;28;20210;-64
2022/03/10 06:57:00;;;;;;;9.50;6.70;;;;;;;;;;5047602;28;20696;-61
2022/03/10 06:59:27;;;;;;;11.93;6.80;;;;;;;;;;5051387;28;20202;-62
2022/03/10 07:01:55;;;;;;;11.90;6.60;;;;;;;;;;5033067;28;20229;-62
2022/03/10 07:04:22;;;;;;;10.07;6.80;;;;;;;;;;5055118;28;20201;-61
2022/03/10 07:06:50;;;;;;;10.53;6.70;;;;;;;;;;5034870;28;20310;-61
2022/03/10 07:09:20;;;;;;;9.63;6.03;;;;;;;;;;5046658;28;20648;-62
2022/03/10 07:11:47;;;;;;;12.10;6.33;;;;;;;;;;5040830;28;20204;-62
2022/03/10 07:14:15;;;;;;;9.33;6.50;;;;;;;;;;5030870;28;20208;-64
2022/03/10 07:16:43;;;;;;;11.97;6.23;;;;;;;;;;5049757;28;20236;-63
2022/03/10 07:19:12;;;;;;;9.00;5.77;;;;;;;;;;5035604;28;20219;-62
2022/03/10 07:21:40;;;;;;;9.17;6.03;;;;;;;;;;5033619;28;20241;-62
2022/03/10 07:24:07;;;;;;;8.73;5.40;;;;;;;;;;5053479;28;20765;-63
2022/03/10 07:26:35;;;;;;;9.70;6.00;;;;;;;;;;5040355;28;20614;-62
2022/03/10 07:29:03;;;;;;;9.23;6.40;;;;;;;;;;5041072;28;20261;-62
2022/03/10 07:31:31;;;;;;;13.90;7.37;;;;;;;;;;5022922;28;20199;-60
2022/03/10 07:33:58;;;;;;;10.23;6.13;;;;;;;;;;5050488;28;20218;-61
2022/03/10 07:36:26;;;;;;;10.23;6.13;;;;;;;;;;5043378;28;20205;-61
2022/03/10 07:38:53;;;;;;;7.50;5.13;;;;;;;;;;5040821;28;20235;-61
2022/03/10 07:41:20;;;;;;;7.30;4.70;;;;;;;;;;5027262;28;20255;-62
2022/03/10 07:43:48;;;;;;;11.40;5.73;;;;;;;;;;5046367;28;20202;-62
2022/03/10 07:46:15;;;;;;;8.00;6.13;;;;;;;;;;5043496;28;20210;-62
2022/03/10 07:48:43;;;;;;;9.07;5.23;;;;;;;;;;5026297;28;20226;-63
2022/03/10 07:51:10;;;;;;;6.07;4.40;;;;;;;;;;5035531;28;20325;-64
2022/03/10 07:53:38;;;;;;;6.20;4.53;;;;;;;;;;5025788;28;20731;-65
2022/03/10 07:56:05;;;;;;;7.10;4.60;;;;;;;;;;5018675;28;20213;-62
2022/03/10 07:58:32;;;;;;;5.33;4.37;;;;;;;;;;5026484;28;20230;-64
2022/03/10 08:01:00;;;;;;;7.20;4.50;;;;;;;;;;5021102;28;20208;-62
2022/03/10 08:03:28;;;;;;;5.50;4.73;;;;;;;;;;5038583;28;20239;-64
2022/03/10 08:05:55;;;;;;;5.87;4.17;;;;;;;;;;5033637;28;20203;-64
2022/03/10 08:08:23;;;;;;;5.60;4.77;;;;;;;;;;5034423;28;20241;-64
2022/03/10 08:10:50;;;;;;;5.43;4.17;;;;;;;;;;5018529;28;20216;-63
2022/03/10 08:13:19;;;;;;;7.07;4.13;;;;;;;;;;5016258;28;20199;-63
2022/03/10 08:15:47;;;;;;;5.83;4.33;;;;;;;;;;5027396;28;20690;-61
2022/03/10 08:18:16;;;;;;;7.17;4.20;;;;;;;;;;5037342;28;20229;-62
2022/03/10 08:20:45;;;;;;;4.37;3.90;;;;;;;;;;5031622;28;20206;-64
2022/03/10 08:23:12;;;;;;;7.07;4.40;;;;;;;;;;5033075;28;20237;-62
2022/03/10 08:25:40;;;;;;;5.83;3.90;;;;;;;;;;5038321;28;20205;-62
2022/03/10 08:28:08;;;;;;;7.07;3.87;;;;;;;;;;5037351;28;20241;-63
2022/03/10 08:30:36;;;;;;;8.27;4.00;;;;;;;;;;5038355;28;20229;-62
2022/03/10 08:33:03;;;;;;;3.90;3.50;;;;;;;;;;5030012;28;20225;-62
2022/03/10 08:35:30;;;;;;;5.53;3.73;;;;;;;;;;5045929;28;20215;-63
2022/03/10 08:37:58;;;;;;;5.17;4.00;;;;;;;;;;5059320;28;20246;-64
2022/03/10 08:40:26;;;;;;;6.50;3.80;;;;;;;;;;5045683;28;20232;-62
2022/03/10 08:42:53;;;;;;;3.70;3.40;;;;;;;;;;5042669;28;20214;-63
2022/03/10 08:45:21;;;;;;;5.10;3.93;;;;;;;;;;5019326;28;20252;-62
2022/03/10 08:47:49;;;;;;;6.93;4.10;;;;;;;;;;5029035;28;20853;-64
2022/03/10 08:50:21;;;;;;;5.23;4.00;;;;;;;;;;5039245;28;20195;-64
2022/03/10 08:52:48;;;;;;;4.60;4.00;;;;;;;;;;5029030;28;20226;-62
2022/03/10 08:55:16;;;;;;;4.20;3.40;;;;;;;;;;5010820;28;20315;-61
2022/03/10 08:57:44;;;;;;;4.70;3.27;;;;;;;;;;5039465;28;20234;-61
2022/03/10 09:00:11;;;;;;;5.47;3.67;;;;;;;;;;5038805;28;20255;-62
2022/03/10 09:02:41;;;;;;;4.27;2.90;;;;;;;;;;5027285;28;20273;-63
2022/03/10 09:05:11;;;;;;;4.07;3.50;;;;;;;;;;5026426;28;20200;-62
2022/03/10 09:07:40;;;;;;;4.73;3.20;;;;;;;;;;5031174;28;20726;-62
2022/03/10 09:10:09;;;;;;;3.80;3.20;;;;;;;;;;5039293;28;20581;-63
2022/03/10 09:12:37;;;;;;;4.57;3.23;;;;;;;;;;5044694;28;20207;-62
2022/03/10 09:15:05;;;;;;;3.67;3.30;;;;;;;;;;5029493;28;20899;-62
2022/03/10 09:17:32;;;;;;;4.40;3.63;;;;;;;;;;5023658;28;20230;-64
2022/03/10 09:20:00;;;;;;;4.87;3.60;;;;;;;;;;5037330;28;20206;-63
2022/03/10 09:22:28;;;;;;;4.67;3.23;;;;;;;;;;5023771;28;20214;-62
2022/03/10 09:24:56;;;;;;;4.07;3.67;;;;;;;;;;5040200;28;20251;-62
2022/03/10 09:27:23;;;;;;;6.27;3.60;;;;;;;;;;5037336;28;20766;-64
2022/03/10 09:29:51;;;;;;;4.43;3.70;;;;;;;;;;5040514;28;20660;-64
2022/03/10 09:32:18;;;;;;;6.90;3.60;;;;;;;;;;5026500;28;20264;-63
2022/03/10 09:34:45;;;;;;;5.13;3.50;;;;;;;;;;5031669;28;20217;-63
2022/03/10 09:37:13;;;;;;;4.73;2.97;;;;;;;;;;5027543;28;20638;-64
2022/03/10 09:39:43;;;;;;;3.70;2.97;;;;;;;;;;5014601;28;20215;-63
2022/03/10 09:42:11;;;;;;;4.07;3.50;;;;;;;;;;5026433;28;20251;-64
2022/03/10 09:44:42;;;;;;;5.70;4.30;;;;;;;;;;5034842;28;20604;-64
2022/03/10 09:47:09;;;;;;;5.40;4.17;;;;;;;;;;5016334;28;20227;-63
2022/03/10 09:49:38;;;;;;;4.80;3.93;;;;;;;;;;5021831;28;20667;-62
2022/03/10 09:52:08;;;;;;;5.43;4.13;;;;;;;;;;4995517;28;20206;-64
2022/03/10 09:54:38;;;;;;;6.30;4.07;;;;;;;;;;5019774;28;20237;-63
2022/03/10 09:57:06;;;;;;;5.37;4.30;;;;;;;;;;5036787;28;20653;-63
2022/03/10 09:59:34;;;;;;;7.73;4.60;;;;;;;;;;5048633;28;20570;-62
2022/03/10 10:02:03;;;;;;;6.10;4.83;;;;;;;;;;5018072;28;20211;-62
2022/03/10 10:04:31;;;;;;;6.23;4.33;;;;;;;;;;5046655;28;20214;-63
2022/03/10 10:07:10;;;;;;;5.03;3.73;;;;;;;;;;5036419;28;20218;-63
2022/03/10 10:09:41;;;;;;;3.90;3.43;;;;;;;;;;5015474;28;20220;-63
2022/03/10 10:12:09;;;;;;;3.73;3.27;;;;;;;;;;5025271;28;20210;-63
2022/03/10 10:14:37;;;;;;;6.43;3.50;;;;;;;;;;5027943;28;20207;-63
2022/03/10 10:17:05;;;;;;;3.80;3.17;;;;;;;;;;5056446;28;20310;-64
2022/03/10 10:19:34;;;;;;;5.07;2.83;;;;;;;;;;5032921;28;20202;-62
2022/03/10 10:22:23;;;;;;;5.40;2.60;;;;;;;;;;5022949;28;20681;-61
2022/03/10 10:24:54;;;;;;;3.03;2.60;;;;;;;;;;5027857;28;20201;-60
2022/03/10 10:27:25;;;;;;;3.10;2.40;;;;;;;;;;5050074;28;20701;-62
2022/03/10 10:29:54;;;;;;;3.37;2.80;;;;;;;;;;5038689;28;20770;-62
2022/03/10 10:32:32;;;;;;;2.90;2.30;;;;;;;;;;5036562;28;20217;-64
2022/03/10 10:35:10;;;;;;;2.90;2.70;;;;;;;;;;5036075;28;20218;-61
2022/03/10 10:37:38;;;;;;;3.63;3.07;;;;;;;;;;5027873;28;20218;-62
2022/03/10 10:40:08;;;;;;;3.27;2.90;;;;;;;;;;5026801;28;20639;-62
2022/03/10 10:42:39;;;;;;;4.40;2.87;;;;;;;;;;5014054;28;20237;-64
2022/03/10 10:45:25;;;;;;;3.10;2.50;;;;;;;;;;5030953;28;20692;-62
2022/03/10 10:48:08;;;;;;;3.33;2.80;;;;;;;;;;5023162;28;20634;-63
2022/03/10 10:50:37;;;;;;;2.83;2.57;;;;;;;;;;5029998;28;20293;-64
2022/03/10 10:53:05;;;;;;;3.47;2.93;;;;;;;;;;5026854;28;20210;-64
2022/03/10 10:55:36;;;;;;;5.17;3.10;;;;;;;;;;5041096;28;20203;-64
2022/03/10 10:58:07;;;;;;;3.23;2.93;;;;;;;;;;5020282;28;20719;-64
2022/03/10 11:00:46;;;;;;;4.30;3.90;;;;;;;;;;5039645;28;20571;-64
2022/03/10 11:03:28;;;;;;;3.77;3.10;;;;;;;;;;5020917;28;20226;-63
2022/03/10 11:06:00;;;;;;;6.83;5.63;;;;;;;;;;5040143;28;20235;-64
2022/03/10 11:08:28;;;;;;;4.57;3.20;;;;;;;;;;5040840;28;20221;-63
2022/03/10 11:10:56;;;;;;;3.87;3.33;;;;;;;;;;5039737;28;20282;-64
2022/03/10 11:13:23;;;;;;;3.00;2.80;;;;;;;;;;5037321;28;20229;-63
2022/03/10 11:15:53;;;;;;;3.33;2.80;;;;;;;;;;5044824;28;20210;-63
2022/03/10 11:18:22;;;;;;;3.00;2.70;;;;;;;;;;5046775;28;20695;-63
2022/03/10 11:20:53;;;;;;;3.10;2.80;;;;;;;;;;5032080;28;20211;-64
2022/03/10 11:23:20;;;;;;;3.10;2.80;;;;;;;;;;5024560;28;20222;-62
2022/03/10 11:26:04;;;;;;;4.57;3.50;;;;;;;;;;5042217;28;20280;-63
2022/03/10 11:28:33;;;;;;;7.13;3.30;;;;;;;;;;5038970;28;20217;-63
2022/03/10 11:31:06;;;;;;;3.40;3.10;;;;;;;;;;5035179;28;20742;-65
2022/03/10 11:33:35;;;;;;;4.40;3.37;;;;;;;;;;5018824;28;20265;-64
2022/03/10 11:36:19;;;;;;;2.30;2.10;;;;;;;;;;5009926;28;20222;-62
2022/03/10 11:39:03;;;;;;;2.30;2.10;;;;;;;;;;5015830;28;20282;-63
2022/03/10 11:41:47;;;;;;;3.00;2.10;;;;;;;;;;5027831;28;20234;-64
2022/03/10 11:44:20;;;;;;;3.07;2.70;;;;;;;;;;5035174;28;20221;-64
2022/03/10 11:46:55;;;;;;;1.80;1.70;;;;;;;;;;5021540;28;20309;-62
2022/03/10 11:49:22;;;;;;;2.47;1.87;;;;;;;;;;5038197;28;20205;-62
2022/03/10 11:51:55;;;;;;;3.10;2.80;;;;;;;;;;5023758;28;20217;-64
2022/03/10 11:54:26;;;;;;;2.27;2.07;;;;;;;;;;5033382;28;20202;-66
2022/03/10 11:56:57;;;;;;;3.37;2.20;;;;;;;;;;5033215;28;20258;-64
2022/03/10 11:59:27;;;;;;;2.17;1.97;;;;;;;;;;5018685;28;20209;-63
2022/03/10 12:01:56;;;;;;;2.83;2.60;;;;;;;;;;5020516;28;20316;-64
2022/03/10 12:04:35;;;;;;;2.20;2.00;;;;;;;;;;5020509;28;20369;-62
2022/03/10 12:07:03;;;;;;;2.70;2.50;;;;;;;;;;5030228;28;20226;-64
2022/03/10 12:09:33;;;;;;;3.30;3.00;;;;;;;;;;5025636;28;20202;-63
2022/03/10 12:12:12;;;;;;;3.20;2.90;;;;;;;;;;5029447;28;20199;-63
2022/03/10 12:15:20;;;;;;;3.07;2.77;;;;;;;;;;5037065;28;20215;-64
2022/03/10 12:17:53;;;;;;;3.23;2.93;;;;;;;;;;5026444;28;20238;-63
2022/03/10 12:20:21;;;;;;;4.30;3.10;;;;;;;;;;5022161;28;20223;-62
2022/03/10 12:23:12;;;;;;;3.27;2.97;;;;;;;;;;5034018;28;20208;-64
2022/03/10 12:25:40;;;;;;;3.10;2.80;;;;;;;;;;5015852;28;20212;-63
2022/03/10 12:28:08;;;;;;;4.83;2.97;;;;;;;;;;5037850;28;20229;-64
2022/03/10 12:30:40;;;;;;;2.93;2.67;;;;;;;;;;5014434;28;20207;-62
2022/03/10 12:33:08;;;;;;;3.23;2.93;;;;;;;;;;5021464;28;20344;-64
2022/03/10 12:35:38;;;;;;;3.83;3.33;;;;;;;;;;5016985;28;20248;-65
2022/03/10 12:38:06;;;;;;;3.27;2.97;;;;;;;;;;5022732;28;20230;-64
2022/03/10 12:40:34;;;;;;;4.50;3.23;;;;;;;;;;5017523;28;20225;-62
2022/03/10 12:43:08;;;;;;;3.50;3.20;;;;;;;;;;5021310;28;21425;-64
2022/03/10 12:45:43;;;;;;;3.60;3.20;;;;;;;;;;5018557;28;20293;-64
2022/03/10 12:48:29;;;;;;;5.07;3.03;;;;;;;;;;5036978;28;20252;-64
2022/03/10 12:50:57;;;;;;;4.53;3.10;;;;;;;;;;5016256;28;21326;-64
2022/03/10 12:53:24;;;;;;;4.53;3.50;;;;;;;;;;5009815;28;20214;-65
2022/03/10 12:55:56;;;;;;;4.87;3.50;;;;;;;;;;5026415;28;20622;-64
2022/03/10 12:58:33;;;;;;;6.07;3.53;;;;;;;;;;5042358;28;20230;-64
2022/03/10 13:01:08;;;;;;;3.87;3.47;;;;;;;;;;5035207;28;20246;-64
2022/03/10 13:03:56;;;;;;;5.57;4.47;;;;;;;;;;5039970;28;20235;-64
2022/03/10 13:06:27;;;;;;;5.37;4.10;;;;;;;;;;5020191;28;20260;-65
2022/03/10 13:08:59;;;;;;;4.70;4.30;;;;;;;;;;5041355;28;20545;-64
2022/03/10 13:11:28;;;;;;;5.20;4.50;;;;;;;;;;5025538;28;20210;-66
2022/03/10 13:14:24;;;;;;;5.23;4.73;;;;;;;;;;5022926;28;20211;-64
2022/03/10 13:16:52;;;;;;;5.40;4.90;;;;;;;;;;5009755;28;20225;-63
2022/03/10 13:19:21;;;;;;;4.77;4.37;;;;;;;;;;5036032;28;20214;-63
2022/03/10 13:21:54;;;;;;;5.13;4.30;;;;;;;;;;5042726;28;20234;-64
2022/03/10 13:24:41;;;;;;;4.53;4.03;;;;;;;;;;5020785;28;20845;-63
2022/03/10 13:27:10;;;;;;;5.30;4.67;;;;;;;;;;5038387;28;20272;-63
2022/03/10 13:29:43;;;;;;;4.30;3.80;;;;;;;;;;5036603;28;20205;-64
2022/03/10 13:32:11;;;;;;;4.60;3.63;;;;;;;;;;5038725;28;20284;-64
2022/03/10 13:34:38;;;;;;;4.10;3.70;;;;;;;;;;5023678;28;20210;-62
2022/03/10 13:37:07;;;;;;;6.03;3.57;;;;;;;;;;5033918;28;20275;-65
2022/03/10 13:39:36;;;;;;;9.37;3.90;;;;;;;;;;5039715;28;20241;-64
2022/03/10 13:42:04;;;;;;;4.10;3.57;;;;;;;;;;5021561;28;20209;-63
2022/03/10 13:44:35;;;;;;;6.33;4.20;;;;;;;;;;5032470;28;20291;-64
2022/03/10 13:47:06;;;;;;;4.20;3.67;;;;;;;;;;5020804;28;20222;-65
2022/03/10 13:49:44;;;;;;;4.37;3.97;;;;;;;;;;5034675;28;20230;-63
2022/03/10 13:52:13;;;;;;;5.83;3.60;;;;;;;;;;5031647;28;20206;-63
2022/03/10 13:54:40;;;;;;;7.07;4.37;;;;;;;;;;5021000;28;20223;-63
2022/03/10 13:57:08;;;;;;;3.93;3.47;;;;;;;;;;5017306;28;20230;-65
2022/03/10 13:59:37;;;;;;;4.50;3.20;;;;;;;;;;5019050;28;20795;-63
2022/03/10 14:02:17;;;;;;;4.90;3.60;;;;;;;;;;5038189;28;20252;-65
2022/03/10 14:04:45;;;;;;;4.97;4.23;;;;;;;;;;5015310;28;20234;-62
2022/03/10 14:07:12;;;;;;;5.07;3.70;;;;;;;;;;5009964;28;20251;-63
2022/03/10 14:09:43;;;;;;;5.23;4.27;;;;;;;;;;5021123;28;20195;-63
2022/03/10 14:12:22;;;;;;;4.23;3.80;;;;;;;;;;5018724;28;20210;-64
2022/03/10 14:14:50;;;;;;;4.50;4.10;;;;;;;;;;5033749;28;20206;-64
2022/03/10 14:17:18;;;;;;;8.53;4.30;;;;;;;;;;5036558;28;20232;-64
2022/03/10 14:19:46;;;;;;;7.50;4.27;;;;;;;;;;5022755;28;20214;-65
2022/03/10 14:22:18;;;;;;;5.43;4.17;;;;;;;;;;5014483;28;20633;-64
2022/03/10 14:24:52;;;;;;;6.47;4.70;;;;;;;;;;5044472;28;20224;-63
2022/03/10 14:27:19;;;;;;;5.60;4.20;;;;;;;;;;5031435;28;20222;-64
2022/03/10 14:29:59;;;;;;;6.17;4.77;;;;;;;;;;5034367;28;20209;-64
2022/03/10 14:32:27;;;;;;;4.33;3.90;;;;;;;;;;5030773;28;20714;-64
2022/03/10 14:34:59;;;;;;;4.67;3.93;;;;;;;;;;5050076;28;20203;-63
2022/03/10 14:37:27;;;;;;;4.07;3.50;;;;;;;;;;5024019;28;20333;-63
2022/03/10 14:39:58;;;;;;;4.53;4.00;;;;;;;;;;5042362;28;20210;-65
2022/03/10 14:42:25;;;;;;;4.43;3.87;;;;;;;;;;5027014;28;20207;-63
2022/03/10 14:44:52;;;;;;;4.53;3.70;;;;;;;;;;5033836;28;20230;-63
2022/03/10 14:47:20;;;;;;;5.00;3.77;;;;;;;;;;5054459;28;20763;-64
2022/03/10 14:49:47;;;;;;;3.97;3.38;;;;;;;;;;5043078;28;20263;-65